Time;durP1;ratioP1;P1;durP2;ratioP2;P2;SDS_P1;SDS_P2;PMS_P1;PMS_P2;Temp;Humidity;BMP_temperature;BMP_pressure;BME280_temperature;BME280_humidity;BME280_pressure;Samples;Min_cycle;Max_cycle;Signal;HPM_P1;HPM_P2
2021/07/11 00:01:35;;;;;;;9.75;6.53;;;;;;;21.28;57.92;101470.81;4950765;28;123773;-78
2021/07/11 00:04:02;;;;;;;8.75;6.30;;;;;;;21.28;58.00;101470.81;4935780;28;113155;-77
2021/07/11 00:06:31;;;;;;;9.02;6.22;;;;;;;21.28;57.94;101470.81;4935547;28;113882;-78
2021/07/11 00:08:58;;;;;;;9.20;6.50;;;;;;;21.25;57.95;101471.03;4969422;28;123873;-78
2021/07/11 00:11:25;;;;;;;8.60;5.75;;;;;;;21.22;58.15;101472.16;4935644;28;122049;-76
2021/07/11 00:13:52;;;;;;;10.20;6.95;;;;;;;21.20;57.88;101466.88;4969733;28;114088;-76
2021/07/11 00:16:19;;;;;;;14.00;7.75;;;;;;;21.18;58.01;101468.84;4951445;28;113819;-78
2021/07/11 00:18:47;;;;;;;14.07;8.77;;;;;;;21.17;58.13;101463.56;4951403;28;123285;-79
2021/07/11 00:21:14;;;;;;;11.32;8.13;;;;;;;21.14;58.19;101453.91;4969411;28;124160;-78
2021/07/11 00:23:41;;;;;;;15.60;9.82;;;;;;;21.12;58.35;101455.88;4969542;28;114505;-79
2021/07/11 00:26:08;;;;;;;17.63;9.80;;;;;;;21.12;58.31;101447.78;4951857;28;113016;-78
2021/07/11 00:28:35;;;;;;;15.63;10.00;;;;;;;21.11;58.41;101442.53;4969072;28;124699;-79
2021/07/11 00:31:02;;;;;;;15.38;10.45;;;;;;;21.09;58.46;101445.34;4941389;28;122423;-78
2021/07/11 00:33:30;;;;;;;15.43;10.45;;;;;;;21.08;58.62;101449.03;4969595;28;114929;-78
2021/07/11 00:35:57;;;;;;;17.42;11.35;;;;;;;21.08;58.53;101454.41;4972160;28;114986;-78
2021/07/11 00:38:24;;;;;;;17.20;12.00;;;;;;;21.06;58.60;101451.00;4971586;28;123840;-78
2021/07/11 00:40:52;;;;;;;18.77;12.70;;;;;;;21.05;58.68;101443.88;4936175;28;122311;-78
2021/07/11 00:43:19;;;;;;;17.67;12.32;;;;;;;21.05;58.58;101443.88;4968992;28;117524;-78
2021/07/11 00:45:49;;;;;;;18.23;13.05;;;;;;;21.04;58.68;101431.41;4950873;28;113891;-78
2021/07/11 00:48:20;;;;;;;18.42;13.30;;;;;;;21.02;58.59;101444.13;4968087;28;123850;-78
2021/07/11 00:50:47;;;;;;;21.45;14.07;;;;;;;20.99;58.38;101438.97;4935553;28;123106;-78
2021/07/11 00:53:15;;;;;;;20.55;13.10;;;;;;;21.00;58.70;101446.06;4968755;28;114379;-78
2021/07/11 00:55:43;;;;;;;19.52;13.23;;;;;;;20.99;58.75;101449.75;4968105;28;114231;-78
2021/07/11 00:58:11;;;;;;;19.02;13.88;;;;;;;20.99;58.53;101449.75;4933805;28;124009;-78
2021/07/11 01:00:49;;;;;;;21.55;14.45;;;;;;;20.98;58.79;101453.41;4950399;28;124275;-78
2021/07/11 01:03:34;;;;;;;21.35;14.52;;;;;;;20.95;58.48;101453.69;4950047;28;113844;-78
2021/07/11 01:06:10;;;;;;;23.02;15.10;;;;;;;20.93;58.47;101447.56;4936493;28;113076;-78
2021/07/11 01:08:49;;;;;;;23.92;14.98;;;;;;;20.92;58.69;101454.75;4934864;28;123993;-78
2021/07/11 01:11:17;;;;;;;21.45;14.85;;;;;;;20.90;58.59;101445.09;4955012;28;121925;-78
2021/07/11 01:13:46;;;;;;;23.90;15.30;;;;;;;20.90;58.67;101450.47;4938017;28;113514;-78
2021/07/11 01:16:18;;;;;;;21.23;15.27;;;;;;;20.88;58.74;101447.06;4972927;28;114041;-78
2021/07/11 01:18:58;;;;;;;22.85;15.52;;;;;;;20.86;58.69;101449.00;4968363;28;124321;-78
2021/07/11 01:21:29;;;;;;;21.55;14.70;;;;;;;20.82;58.85;101458.31;4953957;28;123421;-78
2021/07/11 01:24:10;;;;;;;23.20;15.52;;;;;;;20.78;58.92;101453.16;4953588;28;114645;-78
2021/07/11 01:26:37;;;;;;;20.90;14.73;;;;;;;20.77;58.69;101459.50;4968262;28;115159;-78
2021/07/11 01:29:06;;;;;;;22.08;15.50;;;;;;;20.76;58.74;101460.50;4953354;28;123370;-78
2021/07/11 01:31:34;;;;;;;23.30;14.93;;;;;;;20.75;58.98;101464.16;4934809;28;122916;-78
2021/07/11 01:34:02;;;;;;;22.58;15.32;;;;;;;20.74;59.25;101462.47;4954381;28;114439;-78
2021/07/11 01:36:30;;;;;;;22.40;15.65;;;;;;;20.73;59.03;101460.72;4971428;28;114029;-78
2021/07/11 01:39:00;;;;;;;22.83;15.98;;;;;;;20.72;59.19;101469.81;4954052;28;123659;-78
2021/07/11 01:41:37;;;;;;;23.23;16.00;;;;;;;20.72;58.93;101464.41;4968634;28;124219;-78
2021/07/11 01:44:06;;;;;;;22.98;16.30;;;;;;;20.70;58.94;101450.22;4937919;28;113279;-78
2021/07/11 01:46:34;;;;;;;23.60;15.90;;;;;;;20.68;58.96;101446.81;4934608;28;113150;-78
2021/07/11 01:49:03;;;;;;;24.27;16.33;;;;;;;20.66;59.15;101462.19;4970209;28;124340;-79
2021/07/11 01:51:31;;;;;;;25.13;16.35;;;;;;;20.64;59.01;101466.84;4953838;28;124093;-78
2021/07/11 01:54:01;;;;;;;23.20;16.02;;;;;;;20.64;59.21;101460.59;4971322;28;114407;-78
2021/07/11 01:56:30;;;;;;;23.33;16.38;;;;;;;20.61;59.17;101467.94;4953759;28;113085;-78
2021/07/11 01:58:59;;;;;;;22.35;15.73;;;;;;;20.60;59.13;101462.66;4970232;28;124121;-78
2021/07/11 02:01:33;;;;;;;25.40;15.95;;;;;;;20.60;59.14;101459.97;4953769;28;122494;-78
2021/07/11 02:04:09;;;;;;;26.90;16.98;;;;;;;20.59;59.25;101452.88;4952119;28;113670;-78
2021/07/11 02:06:38;;;;;;;24.67;16.65;;;;;;;20.60;59.29;101454.59;4937935;28;113733;-78
2021/07/11 02:09:15;;;;;;;24.15;16.48;;;;;;;20.62;59.24;101463.41;4941005;28;123339;-78
2021/07/11 02:11:44;;;;;;;25.92;16.63;;;;;;;20.63;59.25;101459.75;4937932;28;122139;-78
2021/07/11 02:14:19;;;;;;;25.70;16.98;;;;;;;20.62;59.32;101441.88;4953704;28;114340;-78
2021/07/11 02:16:59;;;;;;;25.10;16.30;;;;;;;20.62;59.20;101441.88;4953043;28;114463;-78
2021/07/11 02:19:40;;;;;;;27.00;17.33;;;;;;;20.60;59.12;101433.91;4941790;28;123232;-78
2021/07/11 02:22:10;;;;;;;25.35;16.88;;;;;;;20.61;59.21;101445.56;4970731;28;125465;-78
2021/07/11 02:24:42;;;;;;;25.95;16.85;;;;;;;20.61;59.30;101446.41;4939112;28;113634;-78
2021/07/11 02:27:14;;;;;;;24.27;16.55;;;;;;;20.61;59.19;101450.94;4959144;28;113757;-78
2021/07/11 02:29:44;;;;;;;25.00;16.83;;;;;;;20.61;59.34;101456.31;4975660;28;123689;-79
2021/07/11 02:32:12;;;;;;;26.05;17.40;;;;;;;20.61;59.37;101461.72;4974615;28;124645;-79
2021/07/11 02:34:42;;;;;;;29.23;17.75;;;;;;;20.60;59.54;101459.97;4958805;28;115070;-78
2021/07/11 02:37:13;;;;;;;28.52;17.65;;;;;;;20.59;59.55;101460.94;4941154;28;113868;-78
2021/07/11 02:39:46;;;;;;;26.73;17.25;;;;;;;20.58;59.60;101472.66;4936414;28;123482;-79
2021/07/11 02:42:16;;;;;;;25.35;17.08;;;;;;;20.57;59.42;101465.59;4936327;28;123203;-78
2021/07/11 02:44:49;;;;;;;27.73;18.00;;;;;;;20.57;59.66;101471.81;4952469;28;113651;-79
2021/07/11 02:47:22;;;;;;;28.98;17.80;;;;;;;20.56;59.55;101474.63;4951728;28;113192;-78
2021/07/11 02:49:58;;;;;;;25.33;16.70;;;;;;;20.57;59.61;101470.97;4967708;28;123069;-79
2021/07/11 02:52:28;;;;;;;29.60;17.95;;;;;;;20.60;59.53;101481.50;4952230;28;123476;-78
2021/07/11 02:55:04;;;;;;;28.13;17.77;;;;;;;20.59;59.67;101482.47;4952706;28;114405;-77
2021/07/11 02:57:35;;;;;;;26.98;17.83;;;;;;;20.61;59.65;101484.09;4936249;28;113148;-78
2021/07/11 03:00:07;;;;;;;27.08;17.83;;;;;;;20.62;59.69;101479.56;4969250;28;124133;-78
2021/07/11 03:02:41;;;;;;;29.23;17.25;;;;;;;20.63;59.55;101470.53;4954954;28;123023;-78
2021/07/11 03:05:13;;;;;;;27.63;18.48;;;;;;;20.64;59.50;101472.22;4957972;28;114485;-78
2021/07/11 03:07:42;;;;;;;26.42;17.83;;;;;;;20.65;59.75;101473.94;4952730;28;114419;-78
2021/07/11 03:10:15;;;;;;;29.15;17.90;;;;;;;20.67;59.64;101479.22;4952734;28;123643;-77
2021/07/11 03:12:45;;;;;;;28.38;18.05;;;;;;;20.67;59.68;101480.06;4952406;28;122814;-78
2021/07/11 03:15:12;;;;;;;29.30;18.85;;;;;;;20.67;59.54;101482.75;4968991;28;114529;-78
2021/07/11 03:17:41;;;;;;;26.05;17.38;;;;;;;20.67;59.78;101472.00;4952971;28;113330;-78
2021/07/11 03:20:11;;;;;;;26.13;17.83;;;;;;;20.68;59.67;101473.72;4951811;28;124014;-78
2021/07/11 03:22:43;;;;;;;26.30;17.55;;;;;;;20.67;59.50;101465.75;4967032;28;124059;-78
2021/07/11 03:25:12;;;;;;;27.83;18.45;;;;;;;20.68;59.64;101479.09;4951287;28;113772;-79
2021/07/11 03:27:40;;;;;;;30.08;19.20;;;;;;;20.68;59.77;101476.41;4951257;28;114011;-78
2021/07/11 03:30:10;;;;;;;29.00;19.00;;;;;;;20.68;59.71;101473.72;4949840;28;123191;-78
2021/07/11 03:32:45;;;;;;;27.63;17.77;;;;;;;20.68;59.78;101484.50;4969167;28;123606;-78
2021/07/11 03:35:15;;;;;;;29.90;18.58;;;;;;;20.67;59.61;101485.44;4950088;28;113856;-78
2021/07/11 03:37:48;;;;;;;29.88;19.02;;;;;;;20.66;59.79;101486.41;4951103;28;113586;-78
2021/07/11 03:40:22;;;;;;;28.20;18.52;;;;;;;20.64;59.88;101488.38;4965230;28;123870;-78
2021/07/11 03:42:52;;;;;;;27.67;18.70;;;;;;;20.63;59.88;101491.22;4966093;28;124096;-78
2021/07/11 03:45:21;;;;;;;32.92;19.67;;;;;;;20.63;59.78;101492.06;4953489;28;114520;-78
2021/07/11 03:48:02;;;;;;;28.60;18.50;;;;;;;20.62;59.67;101484.94;4945922;28;112319;-78
2021/07/11 03:50:30;;;;;;;27.65;18.13;;;;;;;20.63;59.91;101492.06;4943389;28;123392;-78
2021/07/11 03:53:02;;;;;;;31.00;20.25;;;;;;;20.63;59.83;101486.66;4953964;28;123927;-76
2021/07/11 03:55:32;;;;;;;32.33;19.52;;;;;;;20.62;59.82;101493.00;4967884;28;114703;-78
2021/07/11 03:58:00;;;;;;;32.08;19.48;;;;;;;20.63;59.94;101492.06;4954285;28;115170;-76
2021/07/11 04:00:29;;;;;;;29.88;19.33;;;;;;;20.63;59.95;101497.44;4936526;28;123216;-76
2021/07/11 04:03:00;;;;;;;31.65;20.33;;;;;;;20.62;60.04;101495.69;4945292;28;122951;-78
2021/07/11 04:05:29;;;;;;;34.38;19.52;;;;;;;20.62;59.99;101493.00;4969508;28;114129;-78
2021/07/11 04:07:58;;;;;;;30.85;19.65;;;;;;;20.63;59.93;101496.59;4969220;28;114397;-78
2021/07/11 04:10:28;;;;;;;32.20;19.13;;;;;;;20.62;60.04;101490.31;4951255;28;123366;-78
2021/07/11 04:12:58;;;;;;;31.17;19.67;;;;;;;20.60;60.01;101489.59;4970209;28;124608;-78
2021/07/11 04:15:27;;;;;;;30.23;18.60;;;;;;;20.61;59.81;101488.63;4951497;28;113797;-78
2021/07/11 04:17:59;;;;;;;32.63;19.65;;;;;;;20.61;59.89;101489.47;4951316;28;114581;-78
2021/07/11 04:20:29;;;;;;;29.80;18.73;;;;;;;20.61;59.85;101488.63;4949209;28;124996;-78
2021/07/11 04:22:59;;;;;;;30.83;19.70;;;;;;;20.60;59.93;101497.66;4951245;28;123471;-78
2021/07/11 04:25:31;;;;;;;31.52;19.73;;;;;;;20.59;60.25;101495.94;4952151;28;114259;-78
2021/07/11 04:27:59;;;;;;;31.95;19.27;;;;;;;20.60;59.98;101503.03;4950406;28;114459;-78
2021/07/11 04:30:29;;;;;;;32.60;20.23;;;;;;;20.58;60.08;101499.59;4950923;28;123628;-78
2021/07/11 04:32:56;;;;;;;32.75;19.08;;;;;;;20.58;60.21;101505.81;4967209;28;123891;-78
2021/07/11 04:35:23;;;;;;;34.15;18.95;;;;;;;20.60;60.14;101508.44;4949305;28;114216;-78
2021/07/11 04:37:50;;;;;;;30.67;19.45;;;;;;;20.61;60.13;101507.47;4951670;28;114182;-78
2021/07/11 04:40:18;;;;;;;34.17;20.33;;;;;;;20.61;60.05;101499.38;4950873;28;123347;-78
2021/07/11 04:42:46;;;;;;;29.58;20.05;;;;;;;20.63;60.15;101492.06;4954572;28;123945;-78
2021/07/11 04:45:16;;;;;;;37.42;20.75;;;;;;;20.64;60.18;101498.28;4952304;28;114791;-78
2021/07/11 04:47:43;;;;;;;33.85;20.83;;;;;;;20.64;60.24;101501.81;4954849;28;114955;-78
2021/07/11 04:50:12;;;;;;;35.05;21.40;;;;;;;20.63;60.18;101501.97;4953005;28;124002;-78
2021/07/11 04:52:40;;;;;;;34.13;21.75;;;;;;;20.63;60.25;101497.44;4971088;28;123683;-78
2021/07/11 04:55:10;;;;;;;37.00;22.33;;;;;;;20.63;60.36;101502.81;4972288;28;114143;-78
2021/07/11 04:57:38;;;;;;;35.95;21.60;;;;;;;20.64;60.31;101498.28;4970960;28;114251;-78
2021/07/11 05:00:09;;;;;;;38.83;23.02;;;;;;;20.65;60.19;101500.88;4942331;28;122221;-78
2021/07/11 05:02:36;;;;;;;38.95;23.17;;;;;;;20.65;60.24;101505.41;4950706;28;123825;-78
2021/07/11 05:05:05;;;;;;;38.33;22.67;;;;;;;20.64;60.16;101504.53;4954030;28;113018;-78
2021/07/11 05:07:33;;;;;;;39.85;24.25;;;;;;;20.64;60.34;101498.28;4954286;28;113701;-78
2021/07/11 05:10:08;;;;;;;41.05;23.85;;;;;;;20.64;60.42;101499.13;4946315;28;123418;-78
2021/07/11 05:12:35;;;;;;;39.58;22.92;;;;;;;20.65;60.24;101498.16;4975560;28;123112;-78
2021/07/11 05:15:04;;;;;;;40.10;23.50;;;;;;;20.66;60.50;101507.94;4961682;28;114547;-78
2021/07/11 05:17:31;;;;;;;44.42;24.38;;;;;;;20.67;60.42;101509.69;4973936;28;113315;-78
2021/07/11 05:19:58;;;;;;;41.22;24.02;;;;;;;20.67;60.52;101508.81;4971860;28;124613;-78
2021/07/11 05:22:26;;;;;;;39.25;23.83;;;;;;;20.67;60.48;101504.28;4971333;28;123560;-78
2021/07/11 05:24:53;;;;;;;45.05;24.58;;;;;;;20.68;60.63;101511.41;4954491;28;113048;-78
2021/07/11 05:27:21;;;;;;;42.67;24.33;;;;;;;20.68;60.57;101489.88;4972021;28;114084;-78
2021/07/11 05:29:48;;;;;;;46.83;24.50;;;;;;;20.70;60.58;101487.91;4951256;28;124080;-78
2021/07/11 05:32:15;;;;;;;42.78;24.63;;;;;;;20.72;60.67;101480.56;4938236;28;121997;-77
2021/07/11 05:34:43;;;;;;;40.15;22.77;;;;;;;20.75;60.89;101485.69;4971633;28;114772;-78
2021/07/11 05:37:10;;;;;;;43.67;24.35;;;;;;;20.78;60.90;101480.09;4954930;28;114775;-78
2021/07/11 05:39:37;;;;;;;48.40;25.13;;;;;;;20.80;60.87;101477.28;4961596;28;122505;-78
2021/07/11 05:42:04;;;;;;;45.15;25.35;;;;;;;20.82;60.95;101485.25;4937701;28;123206;-79
2021/07/11 05:44:31;;;;;;;47.20;25.65;;;;;;;20.85;61.02;101484.97;4953738;28;114616;-77
2021/07/11 05:46:58;;;;;;;46.47;25.60;;;;;;;20.88;60.97;101487.44;4972614;28;113889;-77
2021/07/11 05:49:25;;;;;;;47.22;24.88;;;;;;;20.89;61.01;101491.84;4971944;28;124439;-78
2021/07/11 05:51:53;;;;;;;44.15;25.23;;;;;;;20.94;61.07;101500.41;4939030;28;123515;-77
2021/07/11 05:54:20;;;;;;;45.03;25.50;;;;;;;20.96;60.97;101503.84;4973735;28;114260;-78
2021/07/11 05:56:47;;;;;;;43.35;24.80;;;;;;;20.98;61.15;101497.38;4956365;28;115026;-78
2021/07/11 05:59:14;;;;;;;45.13;24.80;;;;;;;20.99;61.17;101496.38;4973276;28;124506;-78
2021/07/11 06:01:41;;;;;;;43.63;24.90;;;;;;;21.04;61.26;101496.03;4939829;28;123252;-78
2021/07/11 06:04:08;;;;;;;41.00;23.70;;;;;;;21.07;61.26;101490.38;4974156;28;113705;-78
2021/07/11 06:06:35;;;;;;;44.83;24.95;;;;;;;21.09;61.14;101483.03;4973793;28;114084;-78
2021/07/11 06:09:02;;;;;;;43.83;24.85;;;;;;;21.12;61.19;101482.81;4972546;28;124185;-78
2021/07/11 06:11:30;;;;;;;48.35;25.65;;;;;;;21.14;61.29;101491.63;4957180;28;122149;-77
2021/07/11 06:13:57;;;;;;;45.95;26.63;;;;;;;21.18;61.26;101495.78;4971235;28;115369;-78
2021/07/11 06:16:25;;;;;;;43.53;25.05;;;;;;;21.23;61.29;101505.34;4973642;28;113194;-76
2021/07/11 06:18:52;;;;;;;43.03;25.08;;;;;;;21.28;61.28;101508.53;4940794;28;123555;-77
2021/07/11 06:21:19;;;;;;;44.00;24.95;;;;;;;21.33;61.50;101509.88;4954993;28;123985;-75
2021/07/11 06:23:47;;;;;;;43.47;24.42;;;;;;;21.36;61.31;101511.44;4971712;28;115767;-75
2021/07/11 06:26:14;;;;;;;42.42;24.33;;;;;;;21.39;61.19;101516.59;4952129;28;115473;-75
2021/07/11 06:28:42;;;;;;;42.00;24.10;;;;;;;21.42;61.23;101527.16;4953234;28;123128;-76
2021/07/11 06:31:09;;;;;;;42.65;24.75;;;;;;;21.46;61.08;101531.34;4971782;28;123715;-77
2021/07/11 06:33:36;;;;;;;43.28;24.90;;;;;;;21.50;61.17;101538.19;4970022;28;114060;-77
2021/07/11 06:36:04;;;;;;;39.22;23.42;;;;;;;21.53;61.08;101540.66;4954455;28;113861;-77
2021/07/11 06:38:31;;;;;;;43.42;24.65;;;;;;;21.54;60.93;101547.75;4967177;28;124318;-76
2021/07/11 06:40:58;;;;;;;43.08;23.50;;;;;;;21.55;60.90;101544.09;4972218;28;123943;-77
2021/07/11 06:43:25;;;;;;;43.90;24.65;;;;;;;21.58;61.10;101549.22;4954856;28;113913;-77
2021/07/11 06:45:55;;;;;;;39.25;22.40;;;;;;;21.63;60.98;101550.69;4954974;28;113985;-76
2021/07/11 06:48:22;;;;;;;37.38;22.00;;;;;;;21.67;60.88;101552.16;4943168;28;123075;-76
2021/07/11 06:50:50;;;;;;;40.58;22.70;;;;;;;21.68;60.70;101548.47;4971620;28;123725;-77
2021/07/11 06:53:17;;;;;;;41.50;22.73;;;;;;;21.71;60.69;101548.22;4954579;28;113029;-76
2021/07/11 06:55:44;;;;;;;39.67;23.48;;;;;;;21.73;60.96;101557.03;4953746;28;113570;-77
2021/07/11 06:58:11;;;;;;;40.45;22.80;;;;;;;21.78;60.95;101560.25;4971306;28;124273;-77
2021/07/11 07:00:38;;;;;;;36.88;21.63;;;;;;;21.83;60.88;101568.81;4953649;28;123099;-76
2021/07/11 07:03:05;;;;;;;39.35;22.08;;;;;;;21.85;60.84;101572.25;4947025;28;114270;-78
2021/07/11 07:05:33;;;;;;;41.72;23.13;;;;;;;21.87;60.74;101570.28;4938775;28;113355;-77
2021/07/11 07:08:00;;;;;;;40.63;21.52;;;;;;;21.91;60.78;101566.34;4954087;28;123840;-78
2021/07/11 07:10:27;;;;;;;39.80;23.20;;;;;;;21.93;60.52;101569.78;4954300;28;123902;-77
2021/07/11 07:12:54;;;;;;;41.08;23.17;;;;;;;21.93;60.49;101575.16;4935904;28;114685;-78
2021/07/11 07:15:21;;;;;;;38.47;23.20;;;;;;;21.93;60.42;101575.16;4954744;28;114908;-77
2021/07/11 07:17:48;;;;;;;38.65;22.60;;;;;;;21.92;60.32;101572.59;4953454;28;122989;-77
2021/07/11 07:20:15;;;;;;;41.35;22.10;;;;;;;21.92;60.13;101570.75;4972121;28;124461;-77
2021/07/11 07:22:42;;;;;;;39.22;22.55;;;;;;;21.92;60.24;101573.44;4972498;28;114533;-77
2021/07/11 07:25:13;;;;;;;38.17;21.63;;;;;;;21.92;60.11;101581.53;4950960;28;114960;-78
2021/07/11 07:27:41;;;;;;;38.22;21.63;;;;;;;21.92;60.22;101573.44;4929295;28;123562;-78
2021/07/11 07:30:09;;;;;;;41.00;21.98;;;;;;;21.94;60.28;101573.31;4972144;28;125128;-77
2021/07/11 07:32:37;;;;;;;42.03;22.75;;;;;;;21.97;60.22;101575.78;4972889;28;114460;-77
2021/07/11 07:35:05;;;;;;;42.58;22.48;;;;;;;22.01;60.30;101581.78;4972056;28;114222;-77
2021/07/11 07:37:32;;;;;;;40.72;23.38;;;;;;;22.02;60.44;101589.75;4937282;28;122829;-77
2021/07/11 07:40:01;;;;;;;43.78;23.50;;;;;;;22.09;60.45;101579.28;4970745;28;123677;-77
2021/07/11 07:42:28;;;;;;;43.45;23.63;;;;;;;22.15;60.39;101586.88;4971968;28;114448;-77
2021/07/11 07:44:55;;;;;;;39.10;22.92;;;;;;;22.21;60.15;101583.69;4953676;28;112884;-78
2021/07/11 07:47:23;;;;;;;43.70;24.20;;;;;;;22.27;60.51;101583.22;4971859;28;124159;-78
2021/07/11 07:49:51;;;;;;;44.25;24.27;;;;;;;22.32;60.17;101582.81;4953937;28;122831;-78
2021/07/11 07:52:18;;;;;;;44.08;23.70;;;;;;;22.38;60.12;101584.16;4971575;28;114669;-77
2021/07/11 07:54:45;;;;;;;46.85;23.98;;;;;;;22.43;60.20;101590.03;4971260;28;113947;-78
2021/07/11 07:57:15;;;;;;;48.53;25.38;;;;;;;22.48;59.91;101595.91;4953591;28;123576;-77
2021/07/11 07:59:43;;;;;;;48.80;26.25;;;;;;;22.49;59.84;101592.22;4970719;28;124658;-77
2021/07/11 08:02:10;;;;;;;53.17;26.85;;;;;;;22.50;59.65;101596.63;4953589;28;115486;-78
2021/07/11 08:04:37;;;;;;;53.17;27.30;;;;;;;22.50;59.59;101591.22;4937798;28;114284;-78
2021/07/11 08:07:04;;;;;;;55.42;27.25;;;;;;;22.47;59.54;101599.59;4970593;28;123974;-77
2021/07/11 08:09:31;;;;;;;50.88;25.38;;;;;;;22.45;59.55;101606.94;4952892;28;123204;-78
2021/07/11 08:11:58;;;;;;;51.00;26.15;;;;;;;22.43;59.56;101596.28;4953298;28;113328;-78
2021/07/11 08:14:26;;;;;;;51.55;24.85;;;;;;;22.43;59.67;101595.44;4952781;28;113117;-78
2021/07/11 08:16:53;;;;;;;50.80;25.30;;;;;;;22.46;59.71;101592.47;4970331;28;123875;-77
2021/07/11 08:19:20;;;;;;;52.03;26.05;;;;;;;22.51;59.98;101591.13;4953551;28;123830;-77
2021/07/11 08:21:47;;;;;;;50.67;25.13;;;;;;;22.59;59.85;101593.16;4953613;28;114068;-77
2021/07/11 08:24:14;;;;;;;51.33;24.38;;;;;;;22.68;59.77;101592.38;4935390;28;113896;-77
2021/07/11 08:26:41;;;;;;;47.88;24.52;;;;;;;22.80;59.73;101589.63;4967994;28;124097;-78
2021/07/11 08:29:08;;;;;;;45.63;23.10;;;;;;;22.91;59.54;101603.09;4970622;28;124291;-78
2021/07/11 08:31:35;;;;;;;46.10;24.23;;;;;;;22.99;59.54;101595.16;4953599;28;114990;-78
2021/07/11 08:34:04;;;;;;;45.40;23.02;;;;;;;23.11;59.46;101587.88;4971499;28;114805;-77
2021/07/11 08:36:34;;;;;;;42.67;22.50;;;;;;;23.25;59.47;101589.41;4971794;28;124368;-78
2021/07/11 08:39:03;;;;;;;40.45;22.27;;;;;;;23.41;59.51;101595.16;4946297;28;123679;-78
2021/07/11 08:41:30;;;;;;;45.35;22.77;;;;;;;23.60;59.49;101598.94;4960681;28;114166;-78
2021/07/11 08:43:57;;;;;;;39.90;22.55;;;;;;;23.77;59.23;101584.81;4938816;28;113924;-78
2021/07/11 08:46:24;;;;;;;42.25;22.45;;;;;;;23.93;58.75;101586.16;4971466;28;123641;-78
2021/07/11 08:48:51;;;;;;;40.38;20.42;;;;;;;24.04;58.29;101575.22;4954694;28;124637;-78
2021/07/11 08:51:19;;;;;;;41.20;21.48;;;;;;;24.17;58.29;101575.81;4953140;28;114972;-78
2021/07/11 08:53:47;;;;;;;38.15;21.63;;;;;;;24.31;58.06;101576.41;4971080;28;114958;-78
2021/07/11 08:56:17;;;;;;;37.58;20.85;;;;;;;24.41;57.24;101578.13;4972031;28;124491;-77
2021/07/11 08:58:52;;;;;;;36.40;21.55;;;;;;;24.47;57.03;101580.25;4935616;28;123616;-79
2021/07/11 09:01:22;;;;;;;36.78;20.27;;;;;;;24.48;56.60;101589.22;4971224;28;114591;-78
2021/07/11 09:04:11;;;;;;;36.03;20.25;;;;;;;24.47;56.18;101592.94;4968264;28;113046;-78
2021/07/11 09:06:55;;;;;;;36.00;20.77;;;;;;;24.44;56.18;101591.34;4957781;28;124960;-78
2021/07/11 09:09:24;;;;;;;36.97;20.30;;;;;;;24.49;56.28;101580.13;4951347;28;123017;-77
2021/07/11 09:12:01;;;;;;;35.83;19.75;;;;;;;24.58;56.46;101590.13;4953602;28;113348;-78
2021/07/11 09:14:33;;;;;;;32.72;19.58;;;;;;;24.70;56.08;101592.69;4952724;28;113458;-78
2021/07/11 09:17:02;;;;;;;34.47;20.17;;;;;;;24.78;55.84;101601.78;4952322;28;123832;-77
2021/07/11 09:19:41;;;;;;;32.83;20.10;;;;;;;24.89;55.42;101603.50;4970364;28;124001;-77
2021/07/11 09:22:08;;;;;;;33.35;20.20;;;;;;;24.93;55.09;101593.25;4950592;28;113819;-78
2021/07/11 09:24:45;;;;;;;32.45;19.80;;;;;;;24.93;54.59;101594.09;4949872;28;113394;-77
2021/07/11 09:27:15;;;;;;;32.72;19.73;;;;;;;24.96;54.87;101593.81;4951298;28;123439;-78
2021/07/11 09:29:43;;;;;;;32.58;19.60;;;;;;;25.04;54.91;101595.78;4969536;28;123795;-77
2021/07/11 09:32:33;;;;;;;29.80;19.30;;;;;;;25.14;54.62;101602.03;4958064;28;113774;-77
2021/07/11 09:35:13;;;;;;;31.42;18.30;;;;;;;25.28;55.30;101592.63;4969258;28;114058;-78
2021/07/11 09:37:47;;;;;;;30.13;18.00;;;;;;;25.45;54.55;101596.44;4938611;28;124257;-78
2021/07/11 09:40:16;;;;;;;28.77;17.48;;;;;;;25.62;54.13;101600.22;4973315;28;123608;-77
2021/07/11 09:42:46;;;;;;;24.33;15.95;;;;;;;25.75;53.43;101600.72;4956012;28;114681;-76
2021/07/11 09:45:25;;;;;;;22.60;15.02;;;;;;;25.84;53.62;101599.84;4976524;28;114503;-77
2021/07/11 09:47:57;;;;;;;20.48;14.73;;;;;;;25.91;52.44;101604.66;4976191;28;123599;-77
2021/07/11 09:50:25;;;;;;;21.55;14.77;;;;;;;25.97;52.62;101604.06;4959297;28;124746;-76
2021/07/11 09:52:54;;;;;;;22.90;15.18;;;;;;;26.08;53.00;101606.56;4951675;28;113787;-77
2021/07/11 09:55:29;;;;;;;20.92;13.60;;;;;;;26.24;52.47;101611.34;4972964;28;113561;-76
2021/07/11 09:58:02;;;;;;;19.23;13.60;;;;;;;26.41;52.42;101609.66;4974668;28;124117;-77
2021/07/11 10:00:35;;;;;;;20.33;13.18;;;;;;;26.51;52.12;101602.28;4972250;28;123652;-77
2021/07/11 10:03:12;;;;;;;19.73;13.13;;;;;;;26.63;51.65;101594.75;4977292;28;114341;-78
2021/07/11 10:05:41;;;;;;;20.23;13.55;;;;;;;26.73;51.27;101595.56;4955590;28;112472;-78
2021/07/11 10:08:09;;;;;;;19.15;12.95;;;;;;;26.81;50.52;101602.91;4969878;28;124246;-77
2021/07/11 10:10:38;;;;;;;18.63;13.00;;;;;;;26.88;50.40;101598.56;4966166;28;123799;-79
2021/07/11 10:13:07;;;;;;;18.02;12.30;;;;;;;26.94;49.89;101600.63;4957254;28;113654;-79
2021/07/11 10:15:38;;;;;;;19.63;12.93;;;;;;;27.00;49.69;101601.88;4952984;28;113663;-79
2021/07/11 10:18:14;;;;;;;18.50;12.68;;;;;;;27.06;49.82;101597.66;4972122;28;124435;-79
2021/07/11 10:20:45;;;;;;;17.02;12.52;;;;;;;27.10;49.26;101596.31;4956560;28;123502;-78
2021/07/11 10:23:32;;;;;;;15.32;11.05;;;;;;;27.10;49.29;101596.31;4960477;28;113795;-79
2021/07/11 10:26:02;;;;;;;16.45;11.93;;;;;;;27.12;49.00;101599.75;4944268;28;113585;-78
2021/07/11 10:28:32;;;;;;;16.55;11.68;;;;;;;27.11;48.79;101598.03;4943081;28;123956;-78
2021/07/11 10:30:59;;;;;;;14.32;10.00;;;;;;;27.10;48.06;101596.31;4968724;28;124542;-78
2021/07/11 10:33:27;;;;;;;14.65;10.30;;;;;;;27.08;47.84;101592.91;4942420;28;113925;-78
2021/07/11 10:36:02;;;;;;;15.55;10.55;;;;;;;27.06;47.95;101594.94;4939948;28;116577;-79
2021/07/11 10:38:39;;;;;;;14.43;10.00;;;;;;;27.04;47.92;101594.25;4977569;28;123817;-79
2021/07/11 10:41:14;;;;;;;14.48;9.88;;;;;;;27.05;48.15;101593.22;4955033;28;122937;-78
2021/07/11 10:43:44;;;;;;;13.25;10.10;;;;;;;27.06;47.89;101590.34;4952604;28;115080;-78
2021/07/11 10:46:12;;;;;;;13.13;9.70;;;;;;;27.08;47.85;101584.75;4976476;28;114135;-78
2021/07/11 10:48:40;;;;;;;13.90;9.52;;;;;;;27.14;48.09;101586.84;4955744;28;123291;-79
2021/07/11 10:51:18;;;;;;;12.60;8.43;;;;;;;27.24;48.64;101587.59;4953165;28;124096;-79
2021/07/11 10:53:45;;;;;;;11.43;8.85;;;;;;;27.36;48.15;101589.03;4972758;28;114510;-78
2021/07/11 10:56:20;;;;;;;13.23;8.95;;;;;;;27.45;47.54;101594.56;4940795;28;112308;-79
2021/07/11 10:58:48;;;;;;;12.25;8.88;;;;;;;27.54;47.76;101593.59;4956479;28;125259;-78
2021/07/11 11:01:17;;;;;;;12.18;8.55;;;;;;;27.64;47.76;101588.84;4940816;28;123354;-79
2021/07/11 11:03:47;;;;;;;11.70;8.50;;;;;;;27.74;46.96;101570.50;4938031;28;113672;-78
2021/07/11 11:06:18;;;;;;;12.05;8.73;;;;;;;27.87;46.71;101582.81;4956218;28;113442;-79
2021/07/11 11:08:47;;;;;;;9.82;7.60;;;;;;;28.00;46.71;101583.22;4956559;28;98880;-79
2021/07/11 11:11:15;;;;;;;9.98;7.50;;;;;;;28.18;46.73;101590.41;4956182;28;123770;-79
2021/07/11 11:13:42;;;;;;;11.23;7.85;;;;;;;28.30;46.19;101589.09;4955345;28;114190;-79